MMGL/GDL METAR and TAF weather

Enter ICAO airport designator
Station Type Date Time Source
MMGL METAR 2020/12/01 19:44 UTC NOAA

MMGL 011944Z 23006KT 8SM SCT030 26/05 A3012 RMK 8/100 PRESFR


Station Type Date Time Source
MMGL Decoded METAR 2020/12/01 19:44 UTC NOAA

Don Miguel / Guadalaj, Mexico (MMGL) 20-31N 103-19W
Dec 01, 2020 - 02:44 PM EST / 2020.12.01 1944 UTC
Wind: from the SW (230 degrees) at 7 MPH (6 KT):0
Visibility: 8 mile(s):0
Sky conditions: partly cloudy
Temperature: 78 F (26 C)
Dew Point: 41 F (5 C)
Relative Humidity: 25%
Pressure (altimeter): 30.12 in. Hg (1019 hPa)
Pressure tendency: falling rapidly
ob: MMGL 011944Z 23006KT 8SM SCT030 26/05 A3012 RMK 8/100 PRESFR
cycle: 19

Station Type Date Time Source
MMGL TAF 2020/12/01 18:56 UTC NOAA

TAF MMGL 011649Z 0118/0224 23010KT 6SM HZ SKC TX26/0121Z TN10/0213Z
FM020300 00000KT 6SM HZ SKC
BECMG 0209/0210 3SM BR HZ
TEMPO 0211/0215 1SM BR HZ BKN005
FM021600 16005KT 5SM HZ SKC
FM021900 26008KT P6SM SKC

Example: see airport list